sensor_id;sensor_type;location;lat;lon;timestamp;temperature;humidity
27900;DHT22;15243;50.726;7.080;2023-02-17T00:01:01;10.70;99.90
27900;DHT22;15243;50.726;7.080;2023-02-17T00:03:34;10.70;99.90
27900;DHT22;15243;50.726;7.080;2023-02-17T00:06:06;10.70;99.90
27900;DHT22;15243;50.726;7.080;2023-02-17T00:08:44;10.70;99.90
27900;DHT22;15243;50.726;7.080;2023-02-17T00:11:12;10.70;99.90
27900;DHT22;15243;50.726;7.080;2023-02-17T00:13:39;10.80;99.90
27900;DHT22;15243;50.726;7.080;2023-02-17T00:16:10;10.80;99.90
27900;DHT22;15243;50.726;7.080;2023-02-17T00:18:37;10.80;99.90
27900;DHT22;15243;50.726;7.080;2023-02-17T00:21:19;10.80;99.90
27900;DHT22;15243;50.726;7.080;2023-02-17T00:23:48;10.80;99.90
27900;DHT22;15243;50.726;7.080;2023-02-17T00:26:16;10.70;99.90
27900;DHT22;15243;50.726;7.080;2023-02-17T00:28:44;10.80;99.90
27900;DHT22;15243;50.726;7.080;2023-02-17T00:31:17;10.70;99.90
27900;DHT22;15243;50.726;7.080;2023-02-17T00:33:44;10.80;99.90
27900;DHT22;15243;50.726;7.080;2023-02-17T00:36:17;10.80;99.90
27900;DHT22;15243;50.726;7.080;2023-02-17T00:38:45;10.80;99.90
27900;DHT22;15243;50.726;7.080;2023-02-17T00:41:14;10.80;99.90
27900;DHT22;15243;50.726;7.080;2023-02-17T00:43:41;10.80;99.90
27900;DHT22;15243;50.726;7.080;2023-02-17T00:46:08;10.80;99.90
27900;DHT22;15243;50.726;7.080;2023-02-17T00:48:36;10.90;99.90
27900;DHT22;15243;50.726;7.080;2023-02-17T00:51:03;10.90;99.90
27900;DHT22;15243;50.726;7.080;2023-02-17T00:53:30;11.00;99.90
27900;DHT22;15243;50.726;7.080;2023-02-17T00:55:57;10.90;99.90
27900;DHT22;15243;50.726;7.080;2023-02-17T00:58:25;10.90;99.90
27900;DHT22;15243;50.726;7.080;2023-02-17T01:00:54;10.90;99.90
27900;DHT22;15243;50.726;7.080;2023-02-17T01:03:22;10.90;99.90
27900;DHT22;15243;50.726;7.080;2023-02-17T01:05:49;10.90;99.90
27900;DHT22;15243;50.726;7.080;2023-02-17T01:08:17;10.90;99.90
27900;DHT22;15243;50.726;7.080;2023-02-17T01:10:45;10.80;99.90
27900;DHT22;15243;50.726;7.080;2023-02-17T01:13:14;10.90;99.90
27900;DHT22;15243;50.726;7.080;2023-02-17T01:15:50;10.90;99.90
27900;DHT22;15243;50.726;7.080;2023-02-17T01:18:20;10.80;99.90
27900;DHT22;15243;50.726;7.080;2023-02-17T01:20:48;10.90;99.90
27900;DHT22;15243;50.726;7.080;2023-02-17T01:23:15;10.90;99.90
27900;DHT22;15243;50.726;7.080;2023-02-17T01:25:44;11.00;99.90
27900;DHT22;15243;50.726;7.080;2023-02-17T01:28:18;11.00;99.90
27900;DHT22;15243;50.726;7.080;2023-02-17T01:30:46;11.00;99.90
27900;DHT22;15243;50.726;7.080;2023-02-17T01:33:14;11.00;99.90
27900;DHT22;15243;50.726;7.080;2023-02-17T01:35:41;11.00;99.90
27900;DHT22;15243;50.726;7.080;2023-02-17T01:38:08;11.00;99.90
27900;DHT22;15243;50.726;7.080;2023-02-17T01:40:35;11.00;99.90
27900;DHT22;15243;50.726;7.080;2023-02-17T01:43:03;11.00;99.90
27900;DHT22;15243;50.726;7.080;2023-02-17T01:45:42;11.00;99.90
27900;DHT22;15243;50.726;7.080;2023-02-17T01:48:16;11.00;99.90
27900;DHT22;15243;50.726;7.080;2023-02-17T01:50:59;11.00;99.90
27900;DHT22;15243;50.726;7.080;2023-02-17T01:53:40;11.00;99.90
27900;DHT22;15243;50.726;7.080;2023-02-17T01:56:09;11.00;99.90
27900;DHT22;15243;50.726;7.080;2023-02-17T01:58:41;11.00;99.90
27900;DHT22;15243;50.726;7.080;2023-02-17T02:01:08;11.00;99.90
27900;DHT22;15243;50.726;7.080;2023-02-17T02:03:36;11.20;99.90
27900;DHT22;15243;50.726;7.080;2023-02-17T02:06:11;11.20;99.90
27900;DHT22;15243;50.726;7.080;2023-02-17T02:09:14;11.10;99.90
27900;DHT22;15243;50.726;7.080;2023-02-17T02:11:42;11.10;99.90
27900;DHT22;15243;50.726;7.080;2023-02-17T02:14:10;11.20;99.90
27900;DHT22;15243;50.726;7.080;2023-02-17T02:17:05;11.10;99.90
27900;DHT22;15243;50.726;7.080;2023-02-17T02:22:56;11.20;99.90
27900;DHT22;15243;50.726;7.080;2023-02-17T02:37:05;11.10;99.90
27900;DHT22;15243;50.726;7.080;2023-02-17T02:39:38;11.30;99.90
27900;DHT22;15243;50.726;7.080;2023-02-17T02:42:10;11.10;99.90
27900;DHT22;15243;50.726;7.080;2023-02-17T02:44:39;11.20;99.90
27900;DHT22;15243;50.726;7.080;2023-02-17T02:50:05;11.10;99.90
27900;DHT22;15243;50.726;7.080;2023-02-17T02:58:20;11.10;99.90
27900;DHT22;15243;50.726;7.080;2023-02-17T03:04:27;11.10;99.90
27900;DHT22;15243;50.726;7.080;2023-02-17T03:09:34;11.30;99.90
27900;DHT22;15243;50.726;7.080;2023-02-17T03:12:01;11.20;99.90
27900;DHT22;15243;50.726;7.080;2023-02-17T03:14:33;11.20;99.90
27900;DHT22;15243;50.726;7.080;2023-02-17T03:17:02;11.30;99.90
27900;DHT22;15243;50.726;7.080;2023-02-17T03:19:30;11.30;99.90
27900;DHT22;15243;50.726;7.080;2023-02-17T03:22:04;11.40;99.90
27900;DHT22;15243;50.726;7.080;2023-02-17T03:24:33;11.40;99.90
27900;DHT22;15243;50.726;7.080;2023-02-17T03:27:01;11.60;99.90
27900;DHT22;15243;50.726;7.080;2023-02-17T03:29:29;11.50;99.90
27900;DHT22;15243;50.726;7.080;2023-02-17T03:31:57;11.50;99.90
27900;DHT22;15243;50.726;7.080;2023-02-17T03:34:26;11.40;99.90
27900;DHT22;15243;50.726;7.080;2023-02-17T03:36:53;11.40;99.90
27900;DHT22;15243;50.726;7.080;2023-02-17T03:39:29;11.40;99.90
27900;DHT22;15243;50.726;7.080;2023-02-17T03:41:59;11.50;99.90
27900;DHT22;15243;50.726;7.080;2023-02-17T03:44:25;11.50;99.90
27900;DHT22;15243;50.726;7.080;2023-02-17T03:46:52;11.50;99.90
27900;DHT22;15243;50.726;7.080;2023-02-17T03:49:20;11.40;99.90
27900;DHT22;15243;50.726;7.080;2023-02-17T03:51:47;11.50;99.90
27900;DHT22;15243;50.726;7.080;2023-02-17T03:54:14;11.50;99.90
27900;DHT22;15243;50.726;7.080;2023-02-17T03:56:41;11.50;99.90
27900;DHT22;15243;50.726;7.080;2023-02-17T03:59:08;11.40;99.90
27900;DHT22;15243;50.726;7.080;2023-02-17T04:01:35;11.40;99.90
27900;DHT22;15243;50.726;7.080;2023-02-17T04:04:02;11.40;99.90
27900;DHT22;15243;50.726;7.080;2023-02-17T04:06:30;11.40;99.90
27900;DHT22;15243;50.726;7.080;2023-02-17T04:08:57;11.40;99.90
27900;DHT22;15243;50.726;7.080;2023-02-17T04:11:24;11.30;99.90
27900;DHT22;15243;50.726;7.080;2023-02-17T04:13:51;11.50;99.90
27900;DHT22;15243;50.726;7.080;2023-02-17T04:16:18;11.30;99.90
27900;DHT22;15243;50.726;7.080;2023-02-17T04:18:45;11.40;99.90
27900;DHT22;15243;50.726;7.080;2023-02-17T04:21:13;11.30;99.90
27900;DHT22;15243;50.726;7.080;2023-02-17T04:23:40;11.20;99.90
27900;DHT22;15243;50.726;7.080;2023-02-17T04:26:07;11.20;99.90
27900;DHT22;15243;50.726;7.080;2023-02-17T04:28:37;11.20;99.90
27900;DHT22;15243;50.726;7.080;2023-02-17T04:31:04;11.20;99.90
27900;DHT22;15243;50.726;7.080;2023-02-17T04:33:32;11.20;99.90
27900;DHT22;15243;50.726;7.080;2023-02-17T04:35:59;11.10;99.90
27900;DHT22;15243;50.726;7.080;2023-02-17T04:38:31;11.20;99.90
27900;DHT22;15243;50.726;7.080;2023-02-17T04:40:59;11.20;99.90
27900;DHT22;15243;50.726;7.080;2023-02-17T04:43:27;11.30;99.90
27900;DHT22;15243;50.726;7.080;2023-02-17T04:45:54;11.20;99.90
27900;DHT22;15243;50.726;7.080;2023-02-17T04:48:22;11.10;99.90
27900;DHT22;15243;50.726;7.080;2023-02-17T04:50:50;11.10;99.90
27900;DHT22;15243;50.726;7.080;2023-02-17T04:53:17;11.10;99.90
27900;DHT22;15243;50.726;7.080;2023-02-17T04:55:50;11.00;99.90
27900;DHT22;15243;50.726;7.080;2023-02-17T04:58:27;11.00;99.90
27900;DHT22;15243;50.726;7.080;2023-02-17T05:00:58;11.10;99.90
27900;DHT22;15243;50.726;7.080;2023-02-17T05:03:25;11.10;99.90
27900;DHT22;15243;50.726;7.080;2023-02-17T05:05:52;11.00;99.90
27900;DHT22;15243;50.726;7.080;2023-02-17T05:08:19;11.00;99.90
27900;DHT22;15243;50.726;7.080;2023-02-17T05:10:46;11.00;99.90
27900;DHT22;15243;50.726;7.080;2023-02-17T05:13:13;10.90;99.90
27900;DHT22;15243;50.726;7.080;2023-02-17T05:15:42;10.90;99.90
27900;DHT22;15243;50.726;7.080;2023-02-17T05:18:09;10.90;99.90
27900;DHT22;15243;50.726;7.080;2023-02-17T05:20:36;10.80;99.90
27900;DHT22;15243;50.726;7.080;2023-02-17T05:23:03;10.80;99.90
27900;DHT22;15243;50.726;7.080;2023-02-17T05:25:30;10.90;99.90
27900;DHT22;15243;50.726;7.080;2023-02-17T05:27:57;10.90;99.90
27900;DHT22;15243;50.726;7.080;2023-02-17T05:30:24;10.90;99.90
27900;DHT22;15243;50.726;7.080;2023-02-17T05:32:51;10.90;99.90
27900;DHT22;15243;50.726;7.080;2023-02-17T05:35:18;11.00;99.90
27900;DHT22;15243;50.726;7.080;2023-02-17T05:37:45;10.90;99.90
27900;DHT22;15243;50.726;7.080;2023-02-17T05:40:12;10.90;99.90
27900;DHT22;15243;50.726;7.080;2023-02-17T05:42:39;10.80;99.90
27900;DHT22;15243;50.726;7.080;2023-02-17T05:45:06;10.90;99.90
27900;DHT22;15243;50.726;7.080;2023-02-17T05:47:32;10.80;99.90
27900;DHT22;15243;50.726;7.080;2023-02-17T05:50:01;10.90;99.90
27900;DHT22;15243;50.726;7.080;2023-02-17T05:52:28;10.80;99.90
27900;DHT22;15243;50.726;7.080;2023-02-17T05:54:55;10.80;99.90
27900;DHT22;15243;50.726;7.080;2023-02-17T05:57:21;10.90;99.90
27900;DHT22;15243;50.726;7.080;2023-02-17T05:59:49;10.90;99.90
27900;DHT22;15243;50.726;7.080;2023-02-17T06:02:15;10.80;99.90
27900;DHT22;15243;50.726;7.080;2023-02-17T06:04:42;10.90;99.90
27900;DHT22;15243;50.726;7.080;2023-02-17T06:09:46;10.90;99.90
27900;DHT22;15243;50.726;7.080;2023-02-17T06:12:13;10.90;99.90
27900;DHT22;15243;50.726;7.080;2023-02-17T06:14:40;11.00;99.90
27900;DHT22;15243;50.726;7.080;2023-02-17T06:17:07;11.00;99.90
27900;DHT22;15243;50.726;7.080;2023-02-17T06:19:34;11.00;99.90
27900;DHT22;15243;50.726;7.080;2023-02-17T06:22:01;11.00;99.90
27900;DHT22;15243;50.726;7.080;2023-02-17T06:24:27;11.10;99.90
27900;DHT22;15243;50.726;7.080;2023-02-17T06:26:54;11.10;99.90
27900;DHT22;15243;50.726;7.080;2023-02-17T06:29:21;11.10;99.90
27900;DHT22;15243;50.726;7.080;2023-02-17T06:31:48;11.10;99.90
27900;DHT22;15243;50.726;7.080;2023-02-17T06:34:15;11.10;99.90
27900;DHT22;15243;50.726;7.080;2023-02-17T06:36:42;11.20;99.90
27900;DHT22;15243;50.726;7.080;2023-02-17T06:39:08;11.20;99.90
27900;DHT22;15243;50.726;7.080;2023-02-17T06:41:35;11.20;99.90
27900;DHT22;15243;50.726;7.080;2023-02-17T06:44:02;11.10;99.90
27900;DHT22;15243;50.726;7.080;2023-02-17T06:46:29;11.30;99.90
27900;DHT22;15243;50.726;7.080;2023-02-17T06:48:56;11.20;99.90
27900;DHT22;15243;50.726;7.080;2023-02-17T06:51:23;11.10;99.90
27900;DHT22;15243;50.726;7.080;2023-02-17T06:53:50;11.30;99.90
27900;DHT22;15243;50.726;7.080;2023-02-17T06:56:17;11.30;99.90
27900;DHT22;15243;50.726;7.080;2023-02-17T06:58:46;11.20;99.90
27900;DHT22;15243;50.726;7.080;2023-02-17T07:01:18;11.20;99.90
27900;DHT22;15243;50.726;7.080;2023-02-17T07:03:45;11.30;99.90
27900;DHT22;15243;50.726;7.080;2023-02-17T07:06:12;11.40;99.90
27900;DHT22;15243;50.726;7.080;2023-02-17T07:08:39;11.50;99.90
27900;DHT22;15243;50.726;7.080;2023-02-17T07:11:08;11.60;99.90
27900;DHT22;15243;50.726;7.080;2023-02-17T07:13:34;11.70;99.90
27900;DHT22;15243;50.726;7.080;2023-02-17T07:16:01;11.80;99.90
27900;DHT22;15243;50.726;7.080;2023-02-17T07:18:29;11.70;99.90
27900;DHT22;15243;50.726;7.080;2023-02-17T07:20:56;11.80;99.90
27900;DHT22;15243;50.726;7.080;2023-02-17T07:23:22;11.70;99.90
27900;DHT22;15243;50.726;7.080;2023-02-17T07:25:49;11.70;99.90
27900;DHT22;15243;50.726;7.080;2023-02-17T07:28:16;11.70;99.90
27900;DHT22;15243;50.726;7.080;2023-02-17T07:30:43;11.80;99.90
27900;DHT22;15243;50.726;7.080;2023-02-17T07:33:10;11.80;99.90
27900;DHT22;15243;50.726;7.080;2023-02-17T07:35:43;11.80;99.90
27900;DHT22;15243;50.726;7.080;2023-02-17T07:38:11;11.80;99.90
27900;DHT22;15243;50.726;7.080;2023-02-17T07:40:38;11.90;99.90
27900;DHT22;15243;50.726;7.080;2023-02-17T07:43:05;12.00;99.90
27900;DHT22;15243;50.726;7.080;2023-02-17T07:45:32;12.00;99.90
27900;DHT22;15243;50.726;7.080;2023-02-17T07:47:59;11.90;99.90
27900;DHT22;15243;50.726;7.080;2023-02-17T07:50:26;11.90;99.90
27900;DHT22;15243;50.726;7.080;2023-02-17T07:52:53;11.90;99.90
27900;DHT22;15243;50.726;7.080;2023-02-17T07:55:19;12.00;99.90
27900;DHT22;15243;50.726;7.080;2023-02-17T07:57:46;12.20;99.90
27900;DHT22;15243;50.726;7.080;2023-02-17T08:00:13;12.20;99.90
27900;DHT22;15243;50.726;7.080;2023-02-17T08:02:40;12.20;99.90
27900;DHT22;15243;50.726;7.080;2023-02-17T08:05:07;12.20;99.90
27900;DHT22;15243;50.726;7.080;2023-02-17T08:07:34;12.30;99.90
27900;DHT22;15243;50.726;7.080;2023-02-17T08:10:01;12.30;99.90
27900;DHT22;15243;50.726;7.080;2023-02-17T08:12:46;12.40;99.90
27900;DHT22;15243;50.726;7.080;2023-02-17T08:15:32;12.40;99.90
27900;DHT22;15243;50.726;7.080;2023-02-17T08:18:00;12.50;99.90
27900;DHT22;15243;50.726;7.080;2023-02-17T08:20:30;12.60;99.90
27900;DHT22;15243;50.726;7.080;2023-02-17T08:22:59;12.50;99.90
27900;DHT22;15243;50.726;7.080;2023-02-17T08:25:31;12.60;99.90
27900;DHT22;15243;50.726;7.080;2023-02-17T08:27:58;12.70;99.90
27900;DHT22;15243;50.726;7.080;2023-02-17T08:30:26;12.70;99.90
27900;DHT22;15243;50.726;7.080;2023-02-17T08:32:52;12.80;99.90
27900;DHT22;15243;50.726;7.080;2023-02-17T08:35:19;12.90;99.90
27900;DHT22;15243;50.726;7.080;2023-02-17T08:37:49;12.80;99.90
27900;DHT22;15243;50.726;7.080;2023-02-17T08:40:16;12.80;99.90
27900;DHT22;15243;50.726;7.080;2023-02-17T08:42:43;12.80;99.90
27900;DHT22;15243;50.726;7.080;2023-02-17T08:45:12;12.90;99.90
27900;DHT22;15243;50.726;7.080;2023-02-17T08:47:40;13.00;99.90
27900;DHT22;15243;50.726;7.080;2023-02-17T08:50:08;13.20;99.90
27900;DHT22;15243;50.726;7.080;2023-02-17T08:52:35;13.20;99.90
27900;DHT22;15243;50.726;7.080;2023-02-17T08:55:02;13.20;99.90
27900;DHT22;15243;50.726;7.080;2023-02-17T08:57:29;13.30;99.90
27900;DHT22;15243;50.726;7.080;2023-02-17T08:59:56;13.40;99.90
27900;DHT22;15243;50.726;7.080;2023-02-17T09:02:23;13.40;99.90
27900;DHT22;15243;50.726;7.080;2023-02-17T09:04:50;13.30;99.90
27900;DHT22;15243;50.726;7.080;2023-02-17T09:07:16;13.30;99.90
27900;DHT22;15243;50.726;7.080;2023-02-17T09:09:43;13.40;99.90
27900;DHT22;15243;50.726;7.080;2023-02-17T09:12:11;13.30;99.90
27900;DHT22;15243;50.726;7.080;2023-02-17T09:14:38;13.50;99.90
27900;DHT22;15243;50.726;7.080;2023-02-17T09:17:04;13.50;99.90
27900;DHT22;15243;50.726;7.080;2023-02-17T09:19:31;13.50;99.90
27900;DHT22;15243;50.726;7.080;2023-02-17T09:21:58;13.60;99.90
27900;DHT22;15243;50.726;7.080;2023-02-17T09:24:25;13.70;99.90
27900;DHT22;15243;50.726;7.080;2023-02-17T09:26:52;13.80;99.90
27900;DHT22;15243;50.726;7.080;2023-02-17T09:29:19;13.80;99.90
27900;DHT22;15243;50.726;7.080;2023-02-17T09:31:45;13.90;99.90
27900;DHT22;15243;50.726;7.080;2023-02-17T09:34:13;13.90;99.90
27900;DHT22;15243;50.726;7.080;2023-02-17T09:36:40;14.00;99.90
27900;DHT22;15243;50.726;7.080;2023-02-17T09:39:08;14.00;99.90
27900;DHT22;15243;50.726;7.080;2023-02-17T09:41:45;13.90;99.90
27900;DHT22;15243;50.726;7.080;2023-02-17T09:44:24;14.00;99.90
27900;DHT22;15243;50.726;7.080;2023-02-17T09:49:36;14.10;99.90
27900;DHT22;15243;50.726;7.080;2023-02-17T09:52:25;14.30;99.90
27900;DHT22;15243;50.726;7.080;2023-02-17T09:54:58;14.30;99.90
27900;DHT22;15243;50.726;7.080;2023-02-17T09:57:29;14.50;99.90
27900;DHT22;15243;50.726;7.080;2023-02-17T10:00:05;14.70;99.90
27900;DHT22;15243;50.726;7.080;2023-02-17T10:05:17;14.90;99.90
27900;DHT22;15243;50.726;7.080;2023-02-17T10:10:39;15.00;99.90
27900;DHT22;15243;50.726;7.080;2023-02-17T10:13:08;14.90;99.90
27900;DHT22;15243;50.726;7.080;2023-02-17T10:15:40;15.00;99.90
27900;DHT22;15243;50.726;7.080;2023-02-17T10:18:16;15.10;99.90
27900;DHT22;15243;50.726;7.080;2023-02-17T10:20:50;15.20;99.90
27900;DHT22;15243;50.726;7.080;2023-02-17T10:23:22;15.40;99.90
27900;DHT22;15243;50.726;7.080;2023-02-17T10:28:49;15.50;99.90
27900;DHT22;15243;50.726;7.080;2023-02-17T10:34:11;15.60;99.90
27900;DHT22;15243;50.726;7.080;2023-02-17T10:39:18;15.60;99.90
27900;DHT22;15243;50.726;7.080;2023-02-17T10:41:47;15.80;99.90
27900;DHT22;15243;50.726;7.080;2023-02-17T10:44:20;15.80;99.90
27900;DHT22;15243;50.726;7.080;2023-02-17T10:46:49;15.80;99.90
27900;DHT22;15243;50.726;7.080;2023-02-17T10:49:29;16.00;99.90
27900;DHT22;15243;50.726;7.080;2023-02-17T10:52:23;16.10;99.90
27900;DHT22;15243;50.726;7.080;2023-02-17T10:55:04;15.90;99.90
27900;DHT22;15243;50.726;7.080;2023-02-17T10:57:56;16.20;99.90
27900;DHT22;15243;50.726;7.080;2023-02-17T11:00:24;16.20;99.90
27900;DHT22;15243;50.726;7.080;2023-02-17T11:02:52;16.40;99.90
27900;DHT22;15243;50.726;7.080;2023-02-17T11:05:31;16.50;99.90
27900;DHT22;15243;50.726;7.080;2023-02-17T11:08:04;16.40;99.90
27900;DHT22;15243;50.726;7.080;2023-02-17T11:10:37;16.30;99.90
27900;DHT22;15243;50.726;7.080;2023-02-17T11:13:33;16.40;99.90
27900;DHT22;15243;50.726;7.080;2023-02-17T11:16:00;16.50;99.90
27900;DHT22;15243;50.726;7.080;2023-02-17T11:18:32;16.30;99.90
27900;DHT22;15243;50.726;7.080;2023-02-17T11:21:07;16.30;99.90
27900;DHT22;15243;50.726;7.080;2023-02-17T11:23:34;16.40;99.90
27900;DHT22;15243;50.726;7.080;2023-02-17T11:26:17;16.30;99.90
27900;DHT22;15243;50.726;7.080;2023-02-17T11:28:47;16.30;99.90
27900;DHT22;15243;50.726;7.080;2023-02-17T11:31:26;16.30;99.90
27900;DHT22;15243;50.726;7.080;2023-02-17T11:33:54;16.50;99.90
27900;DHT22;15243;50.726;7.080;2023-02-17T11:36:29;16.40;99.90
27900;DHT22;15243;50.726;7.080;2023-02-17T11:38:56;16.60;99.90
27900;DHT22;15243;50.726;7.080;2023-02-17T11:41:23;16.60;99.90
27900;DHT22;15243;50.726;7.080;2023-02-17T11:43:55;16.70;99.90
27900;DHT22;15243;50.726;7.080;2023-02-17T11:57:51;16.40;99.90
27900;DHT22;15243;50.726;7.080;2023-02-17T12:00:52;16.60;99.90
27900;DHT22;15243;50.726;7.080;2023-02-17T12:12:00;16.60;99.90
27900;DHT22;15243;50.726;7.080;2023-02-17T12:14:52;16.80;99.90
27900;DHT22;15243;50.726;7.080;2023-02-17T12:23:06;16.70;99.90
27900;DHT22;15243;50.726;7.080;2023-02-17T12:25:44;16.70;99.90
27900;DHT22;15243;50.726;7.080;2023-02-17T12:36:13;17.00;99.90
27900;DHT22;15243;50.726;7.080;2023-02-17T12:38:53;17.00;99.90
27900;DHT22;15243;50.726;7.080;2023-02-17T12:41:32;17.30;99.90
27900;DHT22;15243;50.726;7.080;2023-02-17T12:44:05;17.20;99.90
27900;DHT22;15243;50.726;7.080;2023-02-17T12:49:13;17.40;99.90
27900;DHT22;15243;50.726;7.080;2023-02-17T12:51:51;17.10;99.90
27900;DHT22;15243;50.726;7.080;2023-02-17T12:54:41;17.20;99.90
27900;DHT22;15243;50.726;7.080;2023-02-17T12:57:24;17.40;99.90
27900;DHT22;15243;50.726;7.080;2023-02-17T12:59:52;17.50;99.90
27900;DHT22;15243;50.726;7.080;2023-02-17T13:02:22;17.40;99.90
27900;DHT22;15243;50.726;7.080;2023-02-17T13:04:52;17.30;99.90
27900;DHT22;15243;50.726;7.080;2023-02-17T13:13:02;17.60;99.90
27900;DHT22;15243;50.726;7.080;2023-02-17T13:15:37;17.70;99.90
27900;DHT22;15243;50.726;7.080;2023-02-17T13:18:28;18.00;99.90
27900;DHT22;15243;50.726;7.080;2023-02-17T13:20:56;17.90;99.90
27900;DHT22;15243;50.726;7.080;2023-02-17T13:23:37;18.10;99.90
27900;DHT22;15243;50.726;7.080;2023-02-17T13:26:34;18.30;99.90
27900;DHT22;15243;50.726;7.080;2023-02-17T13:29:30;18.80;99.90
27900;DHT22;15243;50.726;7.080;2023-02-17T13:32:03;18.30;99.90
27900;DHT22;15243;50.726;7.080;2023-02-17T13:34:34;17.60;99.90
27900;DHT22;15243;50.726;7.080;2023-02-17T13:37:58;17.90;99.90
27900;DHT22;15243;50.726;7.080;2023-02-17T13:40:47;18.50;99.90
27900;DHT22;15243;50.726;7.080;2023-02-17T13:42:56;18.80;99.90
27900;DHT22;15243;50.726;7.080;2023-02-17T13:45:39;18.40;99.90
27900;DHT22;15243;50.726;7.080;2023-02-17T13:50:48;17.90;99.90
27900;DHT22;15243;50.726;7.080;2023-02-17T13:53:31;17.80;99.90
27900;DHT22;15243;50.726;7.080;2023-02-17T13:56:04;17.80;99.90
27900;DHT22;15243;50.726;7.080;2023-02-17T13:58:35;18.00;99.90
27900;DHT22;15243;50.726;7.080;2023-02-17T14:01:04;18.10;99.90
27900;DHT22;15243;50.726;7.080;2023-02-17T14:03:42;18.60;99.90
27900;DHT22;15243;50.726;7.080;2023-02-17T14:06:32;18.50;99.90
27900;DHT22;15243;50.726;7.080;2023-02-17T14:11:48;18.00;99.90
27900;DHT22;15243;50.726;7.080;2023-02-17T14:14:15;18.10;99.90
27900;DHT22;15243;50.726;7.080;2023-02-17T14:16:43;18.00;99.90
27900;DHT22;15243;50.726;7.080;2023-02-17T14:19:15;18.00;99.90
27900;DHT22;15243;50.726;7.080;2023-02-17T14:24:33;18.20;99.90
27900;DHT22;15243;50.726;7.080;2023-02-17T14:27:08;18.10;99.90
27900;DHT22;15243;50.726;7.080;2023-02-17T14:29:46;17.80;99.90
27900;DHT22;15243;50.726;7.080;2023-02-17T14:32:34;18.00;99.90
27900;DHT22;15243;50.726;7.080;2023-02-17T14:37:42;18.40;99.90
27900;DHT22;15243;50.726;7.080;2023-02-17T14:40:18;18.10;99.90
27900;DHT22;15243;50.726;7.080;2023-02-17T14:42:46;17.90;99.90
27900;DHT22;15243;50.726;7.080;2023-02-17T14:45:13;17.90;99.90
27900;DHT22;15243;50.726;7.080;2023-02-17T14:47:44;18.10;99.90
27900;DHT22;15243;50.726;7.080;2023-02-17T14:50:12;17.70;99.90
27900;DHT22;15243;50.726;7.080;2023-02-17T14:52:44;17.70;99.90
27900;DHT22;15243;50.726;7.080;2023-02-17T14:55:35;17.80;99.90
27900;DHT22;15243;50.726;7.080;2023-02-17T14:58:04;17.30;99.90
27900;DHT22;15243;50.726;7.080;2023-02-17T15:00:31;17.20;99.90
27900;DHT22;15243;50.726;7.080;2023-02-17T15:02:58;17.10;99.90
27900;DHT22;15243;50.726;7.080;2023-02-17T15:05:24;17.50;99.90
27900;DHT22;15243;50.726;7.080;2023-02-17T15:07:51;17.60;99.90
27900;DHT22;15243;50.726;7.080;2023-02-17T15:10:23;17.40;99.90
27900;DHT22;15243;50.726;7.080;2023-02-17T15:12:51;17.40;99.90
27900;DHT22;15243;50.726;7.080;2023-02-17T15:15:18;17.50;99.90
27900;DHT22;15243;50.726;7.080;2023-02-17T15:17:45;17.50;99.90
27900;DHT22;15243;50.726;7.080;2023-02-17T15:20:14;17.50;99.90
27900;DHT22;15243;50.726;7.080;2023-02-17T15:22:41;17.40;99.90
27900;DHT22;15243;50.726;7.080;2023-02-17T15:25:18;17.10;99.90
27900;DHT22;15243;50.726;7.080;2023-02-17T15:28:01;16.90;99.90
27900;DHT22;15243;50.726;7.080;2023-02-17T15:30:28;16.50;99.90
27900;DHT22;15243;50.726;7.080;2023-02-17T15:32:55;16.10;99.90
27900;DHT22;15243;50.726;7.080;2023-02-17T15:35:25;16.00;99.90
27900;DHT22;15243;50.726;7.080;2023-02-17T15:37:52;15.90;99.90
27900;DHT22;15243;50.726;7.080;2023-02-17T15:40:22;15.90;99.90
27900;DHT22;15243;50.726;7.080;2023-02-17T15:42:53;15.80;99.90
27900;DHT22;15243;50.726;7.080;2023-02-17T15:45:21;15.80;99.90
27900;DHT22;15243;50.726;7.080;2023-02-17T15:47:50;15.70;99.90
27900;DHT22;15243;50.726;7.080;2023-02-17T15:50:20;15.70;99.90
27900;DHT22;15243;50.726;7.080;2023-02-17T15:52:49;15.60;99.90
27900;DHT22;15243;50.726;7.080;2023-02-17T15:55:17;15.70;99.90
27900;DHT22;15243;50.726;7.080;2023-02-17T15:57:47;15.50;99.90
27900;DHT22;15243;50.726;7.080;2023-02-17T16:00:18;15.40;99.90
27900;DHT22;15243;50.726;7.080;2023-02-17T16:02:46;15.30;99.90
27900;DHT22;15243;50.726;7.080;2023-02-17T16:05:14;15.30;99.90
27900;DHT22;15243;50.726;7.080;2023-02-17T16:07:42;15.30;99.90
27900;DHT22;15243;50.726;7.080;2023-02-17T16:10:11;15.20;99.90
27900;DHT22;15243;50.726;7.080;2023-02-17T16:12:39;15.10;99.90
27900;DHT22;15243;50.726;7.080;2023-02-17T16:15:11;15.10;99.90
27900;DHT22;15243;50.726;7.080;2023-02-17T16:17:39;15.10;99.90
27900;DHT22;15243;50.726;7.080;2023-02-17T16:20:20;15.00;99.90
27900;DHT22;15243;50.726;7.080;2023-02-17T16:22:47;14.90;99.90
27900;DHT22;15243;50.726;7.080;2023-02-17T16:25:16;14.80;99.90
27900;DHT22;15243;50.726;7.080;2023-02-17T16:27:45;14.70;99.90
27900;DHT22;15243;50.726;7.080;2023-02-17T16:30:33;14.50;99.90
27900;DHT22;15243;50.726;7.080;2023-02-17T16:33:01;14.50;99.90
27900;DHT22;15243;50.726;7.080;2023-02-17T16:35:30;14.40;99.90
27900;DHT22;15243;50.726;7.080;2023-02-17T16:38:16;14.30;99.90
27900;DHT22;15243;50.726;7.080;2023-02-17T16:40:49;14.30;99.90
27900;DHT22;15243;50.726;7.080;2023-02-17T16:43:19;14.30;99.90
27900;DHT22;15243;50.726;7.080;2023-02-17T16:46:04;14.30;99.90
27900;DHT22;15243;50.726;7.080;2023-02-17T16:48:34;14.10;99.90
27900;DHT22;15243;50.726;7.080;2023-02-17T16:51:02;14.00;99.90
27900;DHT22;15243;50.726;7.080;2023-02-17T16:53:28;14.10;99.90
27900;DHT22;15243;50.726;7.080;2023-02-17T16:55:56;14.00;99.90
27900;DHT22;15243;50.726;7.080;2023-02-17T16:58:25;14.10;99.90
27900;DHT22;15243;50.726;7.080;2023-02-17T17:00:53;13.90;99.90
27900;DHT22;15243;50.726;7.080;2023-02-17T17:03:20;13.90;99.90
27900;DHT22;15243;50.726;7.080;2023-02-17T17:05:50;13.90;99.90
27900;DHT22;15243;50.726;7.080;2023-02-17T17:08:17;13.80;99.90
27900;DHT22;15243;50.726;7.080;2023-02-17T17:10:47;13.40;99.90
27900;DHT22;15243;50.726;7.080;2023-02-17T17:13:15;13.50;99.90
27900;DHT22;15243;50.726;7.080;2023-02-17T17:15:43;13.30;99.90
27900;DHT22;15243;50.726;7.080;2023-02-17T17:18:20;13.30;99.90
27900;DHT22;15243;50.726;7.080;2023-02-17T17:20:47;13.20;99.90
27900;DHT22;15243;50.726;7.080;2023-02-17T17:23:15;13.10;99.90
27900;DHT22;15243;50.726;7.080;2023-02-17T17:25:43;12.90;99.90
27900;DHT22;15243;50.726;7.080;2023-02-17T17:28:13;12.80;99.90
27900;DHT22;15243;50.726;7.080;2023-02-17T17:30:40;12.60;99.90
27900;DHT22;15243;50.726;7.080;2023-02-17T17:33:07;12.30;99.90